sensor_id;sensor_type;location;lat;lon;timestamp;P1;durP1;ratioP1;P2;durP2;ratioP2
10687;SDS011;5392;42.688;23.298;2024-02-21T00:00:34;6.90;;;4.18;;
10687;SDS011;5392;42.688;23.298;2024-02-21T00:03:00;5.45;;;3.85;;
10687;SDS011;5392;42.688;23.298;2024-02-21T00:05:27;5.32;;;4.07;;
10687;SDS011;5392;42.688;23.298;2024-02-21T00:07:52;7.03;;;4.40;;
10687;SDS011;5392;42.688;23.298;2024-02-21T00:10:18;7.07;;;4.60;;
10687;SDS011;5392;42.688;23.298;2024-02-21T00:12:43;5.65;;;4.00;;
10687;SDS011;5392;42.688;23.298;2024-02-21T00:15:09;8.57;;;4.20;;
10687;SDS011;5392;42.688;23.298;2024-02-21T00:17:35;6.95;;;4.18;;
10687;SDS011;5392;42.688;23.298;2024-02-21T00:20:00;7.13;;;3.55;;
10687;SDS011;5392;42.688;23.298;2024-02-21T00:22:26;5.63;;;4.20;;
10687;SDS011;5392;42.688;23.298;2024-02-21T00:24:54;6.80;;;3.90;;
10687;SDS011;5392;42.688;23.298;2024-02-21T00:27:19;7.75;;;4.32;;
10687;SDS011;5392;42.688;23.298;2024-02-21T00:29:45;7.18;;;4.50;;
10687;SDS011;5392;42.688;23.298;2024-02-21T00:32:10;8.50;;;3.75;;
10687;SDS011;5392;42.688;23.298;2024-02-21T00:34:36;6.70;;;4.13;;
10687;SDS011;5392;42.688;23.298;2024-02-21T00:37:01;8.63;;;4.55;;
10687;SDS011;5392;42.688;23.298;2024-02-21T00:39:27;5.78;;;3.88;;
10687;SDS011;5392;42.688;23.298;2024-02-21T00:41:52;6.63;;;3.92;;
10687;SDS011;5392;42.688;23.298;2024-02-21T00:44:18;5.40;;;3.80;;
10687;SDS011;5392;42.688;23.298;2024-02-21T00:46:43;7.28;;;4.32;;
10687;SDS011;5392;42.688;23.298;2024-02-21T00:49:09;6.38;;;4.32;;
10687;SDS011;5392;42.688;23.298;2024-02-21T00:51:34;6.32;;;3.67;;
10687;SDS011;5392;42.688;23.298;2024-02-21T00:54:00;5.80;;;4.10;;
10687;SDS011;5392;42.688;23.298;2024-02-21T00:56:26;6.93;;;4.05;;
10687;SDS011;5392;42.688;23.298;2024-02-21T00:58:52;6.28;;;3.85;;
10687;SDS011;5392;42.688;23.298;2024-02-21T01:01:21;5.60;;;4.03;;
10687;SDS011;5392;42.688;23.298;2024-02-21T01:03:50;5.97;;;3.63;;
10687;SDS011;5392;42.688;23.298;2024-02-21T01:06:18;5.63;;;3.65;;
10687;SDS011;5392;42.688;23.298;2024-02-21T01:08:45;6.25;;;3.45;;
10687;SDS011;5392;42.688;23.298;2024-02-21T01:11:13;7.15;;;3.97;;
10687;SDS011;5392;42.688;23.298;2024-02-21T01:13:39;5.45;;;3.53;;
10687;SDS011;5392;42.688;23.298;2024-02-21T01:16:04;4.80;;;3.60;;
10687;SDS011;5392;42.688;23.298;2024-02-21T01:20:56;6.03;;;3.50;;
10687;SDS011;5392;42.688;23.298;2024-02-21T01:23:22;4.15;;;3.58;;
10687;SDS011;5392;42.688;23.298;2024-02-21T01:25:47;5.57;;;3.75;;
10687;SDS011;5392;42.688;23.298;2024-02-21T01:28:13;7.57;;;4.28;;
10687;SDS011;5392;42.688;23.298;2024-02-21T01:30:38;7.90;;;4.13;;
10687;SDS011;5392;42.688;23.298;2024-02-21T01:33:04;5.80;;;3.58;;
10687;SDS011;5392;42.688;23.298;2024-02-21T01:35:29;6.68;;;4.60;;
10687;SDS011;5392;42.688;23.298;2024-02-21T01:37:55;6.75;;;4.03;;
10687;SDS011;5392;42.688;23.298;2024-02-21T01:40:21;8.27;;;4.10;;
10687;SDS011;5392;42.688;23.298;2024-02-21T01:42:46;6.63;;;3.75;;
10687;SDS011;5392;42.688;23.298;2024-02-21T01:45:13;5.30;;;3.92;;
10687;SDS011;5392;42.688;23.298;2024-02-21T01:47:39;7.47;;;4.25;;
10687;SDS011;5392;42.688;23.298;2024-02-21T01:50:05;7.13;;;4.35;;
10687;SDS011;5392;42.688;23.298;2024-02-21T01:52:32;7.57;;;4.20;;
10687;SDS011;5392;42.688;23.298;2024-02-21T01:54:59;8.27;;;4.95;;
10687;SDS011;5392;42.688;23.298;2024-02-21T01:57:26;7.60;;;4.20;;
10687;SDS011;5392;42.688;23.298;2024-02-21T01:59:53;6.45;;;3.97;;
10687;SDS011;5392;42.688;23.298;2024-02-21T02:02:19;6.53;;;3.95;;
10687;SDS011;5392;42.688;23.298;2024-02-21T02:04:45;7.18;;;4.50;;
10687;SDS011;5392;42.688;23.298;2024-02-21T02:07:11;8.27;;;4.85;;
10687;SDS011;5392;42.688;23.298;2024-02-21T02:09:36;8.63;;;4.65;;
10687;SDS011;5392;42.688;23.298;2024-02-21T02:12:02;7.43;;;4.85;;
10687;SDS011;5392;42.688;23.298;2024-02-21T02:14:28;7.38;;;4.45;;
10687;SDS011;5392;42.688;23.298;2024-02-21T02:16:53;10.25;;;4.93;;
10687;SDS011;5392;42.688;23.298;2024-02-21T02:19:19;8.65;;;4.63;;
10687;SDS011;5392;42.688;23.298;2024-02-21T02:21:46;11.32;;;5.07;;
10687;SDS011;5392;42.688;23.298;2024-02-21T02:24:18;8.48;;;4.85;;
10687;SDS011;5392;42.688;23.298;2024-02-21T02:26:45;10.27;;;5.22;;
10687;SDS011;5392;42.688;23.298;2024-02-21T02:29:10;6.80;;;4.10;;
10687;SDS011;5392;42.688;23.298;2024-02-21T02:31:36;8.68;;;5.25;;
10687;SDS011;5392;42.688;23.298;2024-02-21T02:34:03;8.18;;;4.65;;
10687;SDS011;5392;42.688;23.298;2024-02-21T02:36:30;9.15;;;5.45;;
10687;SDS011;5392;42.688;23.298;2024-02-21T02:38:58;9.15;;;5.15;;
10687;SDS011;5392;42.688;23.298;2024-02-21T02:41:24;11.90;;;6.07;;
10687;SDS011;5392;42.688;23.298;2024-02-21T02:43:49;8.68;;;5.15;;
10687;SDS011;5392;42.688;23.298;2024-02-21T02:46:15;12.88;;;6.03;;
10687;SDS011;5392;42.688;23.298;2024-02-21T02:48:41;9.63;;;5.78;;
10687;SDS011;5392;42.688;23.298;2024-02-21T02:51:06;9.40;;;5.03;;
10687;SDS011;5392;42.688;23.298;2024-02-21T02:53:32;9.68;;;5.18;;
10687;SDS011;5392;42.688;23.298;2024-02-21T02:55:57;8.82;;;5.63;;
10687;SDS011;5392;42.688;23.298;2024-02-21T02:58:23;12.02;;;5.38;;
10687;SDS011;5392;42.688;23.298;2024-02-21T03:00:48;9.43;;;5.25;;
10687;SDS011;5392;42.688;23.298;2024-02-21T03:03:14;10.80;;;5.90;;
10687;SDS011;5392;42.688;23.298;2024-02-21T03:05:39;8.88;;;4.93;;
10687;SDS011;5392;42.688;23.298;2024-02-21T03:08:05;8.23;;;4.85;;
10687;SDS011;5392;42.688;23.298;2024-02-21T03:10:32;9.52;;;4.93;;
10687;SDS011;5392;42.688;23.298;2024-02-21T03:12:58;11.15;;;5.30;;
10687;SDS011;5392;42.688;23.298;2024-02-21T03:15:24;9.68;;;5.50;;
10687;SDS011;5392;42.688;23.298;2024-02-21T03:17:49;8.95;;;4.80;;
10687;SDS011;5392;42.688;23.298;2024-02-21T03:20:15;10.20;;;4.97;;
10687;SDS011;5392;42.688;23.298;2024-02-21T03:22:41;10.50;;;5.57;;
10687;SDS011;5392;42.688;23.298;2024-02-21T03:25:07;11.43;;;5.88;;
10687;SDS011;5392;42.688;23.298;2024-02-21T03:27:34;8.55;;;5.30;;
10687;SDS011;5392;42.688;23.298;2024-02-21T03:29:59;10.95;;;6.00;;
10687;SDS011;5392;42.688;23.298;2024-02-21T03:32:25;9.85;;;5.85;;
10687;SDS011;5392;42.688;23.298;2024-02-21T03:34:51;9.50;;;4.88;;
10687;SDS011;5392;42.688;23.298;2024-02-21T03:37:16;10.05;;;4.93;;
10687;SDS011;5392;42.688;23.298;2024-02-21T03:39:41;9.77;;;5.30;;
10687;SDS011;5392;42.688;23.298;2024-02-21T03:42:07;7.53;;;4.85;;
10687;SDS011;5392;42.688;23.298;2024-02-21T03:44:33;9.52;;;5.85;;
10687;SDS011;5392;42.688;23.298;2024-02-21T03:46:59;12.50;;;5.82;;
10687;SDS011;5392;42.688;23.298;2024-02-21T03:49:25;11.25;;;5.43;;
10687;SDS011;5392;42.688;23.298;2024-02-21T03:51:51;10.95;;;5.53;;
10687;SDS011;5392;42.688;23.298;2024-02-21T03:54:17;9.52;;;5.57;;
10687;SDS011;5392;42.688;23.298;2024-02-21T03:56:43;10.02;;;5.43;;
10687;SDS011;5392;42.688;23.298;2024-02-21T03:59:08;9.77;;;5.03;;
10687;SDS011;5392;42.688;23.298;2024-02-21T04:01:34;10.98;;;5.72;;
10687;SDS011;5392;42.688;23.298;2024-02-21T04:04:00;11.27;;;5.97;;
10687;SDS011;5392;42.688;23.298;2024-02-21T04:06:26;10.77;;;6.10;;
10687;SDS011;5392;42.688;23.298;2024-02-21T04:08:51;10.88;;;6.15;;
10687;SDS011;5392;42.688;23.298;2024-02-21T04:11:17;10.77;;;5.50;;
10687;SDS011;5392;42.688;23.298;2024-02-21T04:16:09;10.20;;;5.63;;
10687;SDS011;5392;42.688;23.298;2024-02-21T04:18:34;10.57;;;6.15;;
10687;SDS011;5392;42.688;23.298;2024-02-21T04:21:00;13.48;;;6.07;;
10687;SDS011;5392;42.688;23.298;2024-02-21T04:23:25;14.25;;;7.28;;
10687;SDS011;5392;42.688;23.298;2024-02-21T04:25:51;12.38;;;5.70;;
10687;SDS011;5392;42.688;23.298;2024-02-21T04:28:17;12.00;;;6.22;;
10687;SDS011;5392;42.688;23.298;2024-02-21T04:30:43;13.25;;;6.60;;
10687;SDS011;5392;42.688;23.298;2024-02-21T04:33:08;12.48;;;6.43;;
10687;SDS011;5392;42.688;23.298;2024-02-21T04:35:35;12.10;;;6.32;;
10687;SDS011;5392;42.688;23.298;2024-02-21T04:38:01;14.60;;;8.23;;
10687;SDS011;5392;42.688;23.298;2024-02-21T04:40:27;13.77;;;7.25;;
10687;SDS011;5392;42.688;23.298;2024-02-21T04:42:53;14.32;;;7.63;;
10687;SDS011;5392;42.688;23.298;2024-02-21T04:45:19;13.35;;;7.53;;
10687;SDS011;5392;42.688;23.298;2024-02-21T04:47:44;13.57;;;7.35;;
10687;SDS011;5392;42.688;23.298;2024-02-21T04:50:10;12.32;;;6.70;;
10687;SDS011;5392;42.688;23.298;2024-02-21T04:52:35;15.10;;;8.13;;
10687;SDS011;5392;42.688;23.298;2024-02-21T04:55:01;14.98;;;7.68;;
10687;SDS011;5392;42.688;23.298;2024-02-21T04:57:26;14.07;;;7.43;;
10687;SDS011;5392;42.688;23.298;2024-02-21T04:59:52;14.75;;;7.55;;
10687;SDS011;5392;42.688;23.298;2024-02-21T05:02:17;13.52;;;7.03;;
10687;SDS011;5392;42.688;23.298;2024-02-21T05:04:44;16.15;;;7.75;;
10687;SDS011;5392;42.688;23.298;2024-02-21T05:07:10;18.85;;;8.18;;
10687;SDS011;5392;42.688;23.298;2024-02-21T05:09:38;12.18;;;7.32;;
10687;SDS011;5392;42.688;23.298;2024-02-21T05:12:04;12.55;;;6.85;;
10687;SDS011;5392;42.688;23.298;2024-02-21T05:14:29;14.63;;;7.70;;
10687;SDS011;5392;42.688;23.298;2024-02-21T05:16:55;15.88;;;8.43;;
10687;SDS011;5392;42.688;23.298;2024-02-21T05:19:20;17.95;;;9.05;;
10687;SDS011;5392;42.688;23.298;2024-02-21T05:21:46;16.63;;;8.55;;
10687;SDS011;5392;42.688;23.298;2024-02-21T05:24:12;18.58;;;9.07;;
10687;SDS011;5392;42.688;23.298;2024-02-21T05:26:37;15.00;;;8.43;;
10687;SDS011;5392;42.688;23.298;2024-02-21T05:29:02;19.08;;;9.20;;
10687;SDS011;5392;42.688;23.298;2024-02-21T05:34:15;17.92;;;9.05;;
10687;SDS011;5392;42.688;23.298;2024-02-21T05:36:41;17.15;;;9.10;;
10687;SDS011;5392;42.688;23.298;2024-02-21T05:39:06;16.63;;;8.65;;
10687;SDS011;5392;42.688;23.298;2024-02-21T05:41:32;18.25;;;9.27;;
10687;SDS011;5392;42.688;23.298;2024-02-21T05:43:57;17.25;;;8.80;;
10687;SDS011;5392;42.688;23.298;2024-02-21T05:46:23;19.10;;;9.88;;
10687;SDS011;5392;42.688;23.298;2024-02-21T05:48:48;19.23;;;9.77;;
10687;SDS011;5392;42.688;23.298;2024-02-21T05:51:14;21.45;;;10.75;;
10687;SDS011;5392;42.688;23.298;2024-02-21T05:53:40;18.75;;;9.57;;
10687;SDS011;5392;42.688;23.298;2024-02-21T05:56:09;18.10;;;9.32;;
10687;SDS011;5392;42.688;23.298;2024-02-21T05:58:36;17.73;;;8.80;;
10687;SDS011;5392;42.688;23.298;2024-02-21T06:01:02;20.45;;;10.75;;
10687;SDS011;5392;42.688;23.298;2024-02-21T06:05:54;23.67;;;11.18;;
10687;SDS011;5392;42.688;23.298;2024-02-21T06:08:19;28.98;;;14.57;;
10687;SDS011;5392;42.688;23.298;2024-02-21T06:10:45;40.22;;;18.58;;
10687;SDS011;5392;42.688;23.298;2024-02-21T06:13:11;37.97;;;19.85;;
10687;SDS011;5392;42.688;23.298;2024-02-21T06:15:36;40.90;;;21.73;;
10687;SDS011;5392;42.688;23.298;2024-02-21T06:18:02;31.33;;;16.27;;
10687;SDS011;5392;42.688;23.298;2024-02-21T06:20:27;36.15;;;17.50;;
10687;SDS011;5392;42.688;23.298;2024-02-21T06:22:53;33.22;;;17.15;;
10687;SDS011;5392;42.688;23.298;2024-02-21T06:25:19;29.63;;;15.02;;
10687;SDS011;5392;42.688;23.298;2024-02-21T06:27:44;26.38;;;14.63;;
10687;SDS011;5392;42.688;23.298;2024-02-21T06:30:10;32.40;;;16.13;;
10687;SDS011;5392;42.688;23.298;2024-02-21T06:32:36;30.17;;;15.55;;
10687;SDS011;5392;42.688;23.298;2024-02-21T06:35:01;29.88;;;16.42;;
10687;SDS011;5392;42.688;23.298;2024-02-21T06:37:27;31.20;;;18.08;;
10687;SDS011;5392;42.688;23.298;2024-02-21T06:39:52;34.38;;;18.55;;
10687;SDS011;5392;42.688;23.298;2024-02-21T06:42:18;32.95;;;18.58;;
10687;SDS011;5392;42.688;23.298;2024-02-21T06:44:44;34.13;;;17.05;;
10687;SDS011;5392;42.688;23.298;2024-02-21T06:47:09;24.10;;;12.82;;
10687;SDS011;5392;42.688;23.298;2024-02-21T06:49:35;24.45;;;11.98;;
10687;SDS011;5392;42.688;23.298;2024-02-21T06:52:03;21.33;;;10.88;;
10687;SDS011;5392;42.688;23.298;2024-02-21T06:54:30;19.70;;;10.10;;
10687;SDS011;5392;42.688;23.298;2024-02-21T06:56:55;19.23;;;9.00;;
10687;SDS011;5392;42.688;23.298;2024-02-21T06:59:21;19.08;;;9.60;;
10687;SDS011;5392;42.688;23.298;2024-02-21T07:01:49;27.23;;;10.45;;
10687;SDS011;5392;42.688;23.298;2024-02-21T07:04:18;14.25;;;8.68;;
10687;SDS011;5392;42.688;23.298;2024-02-21T07:06:43;19.60;;;9.15;;
10687;SDS011;5392;42.688;23.298;2024-02-21T07:09:09;14.68;;;8.65;;
10687;SDS011;5392;42.688;23.298;2024-02-21T07:11:34;15.68;;;9.15;;
10687;SDS011;5392;42.688;23.298;2024-02-21T07:14:00;17.10;;;8.40;;
10687;SDS011;5392;42.688;23.298;2024-02-21T07:16:25;16.65;;;7.93;;
10687;SDS011;5392;42.688;23.298;2024-02-21T07:18:51;18.65;;;9.95;;
10687;SDS011;5392;42.688;23.298;2024-02-21T07:21:17;18.60;;;8.50;;
10687;SDS011;5392;42.688;23.298;2024-02-21T07:23:42;21.13;;;8.63;;
10687;SDS011;5392;42.688;23.298;2024-02-21T07:26:08;16.75;;;8.68;;
10687;SDS011;5392;42.688;23.298;2024-02-21T07:28:33;17.00;;;8.43;;
10687;SDS011;5392;42.688;23.298;2024-02-21T07:30:59;15.88;;;8.20;;
10687;SDS011;5392;42.688;23.298;2024-02-21T07:33:25;25.00;;;12.98;;
10687;SDS011;5392;42.688;23.298;2024-02-21T07:35:50;16.48;;;9.15;;
10687;SDS011;5392;42.688;23.298;2024-02-21T07:38:16;20.92;;;10.00;;
10687;SDS011;5392;42.688;23.298;2024-02-21T07:40:46;16.88;;;8.40;;
10687;SDS011;5392;42.688;23.298;2024-02-21T07:43:11;18.77;;;8.35;;
10687;SDS011;5392;42.688;23.298;2024-02-21T07:45:37;18.35;;;9.05;;
10687;SDS011;5392;42.688;23.298;2024-02-21T07:48:04;14.60;;;8.15;;
10687;SDS011;5392;42.688;23.298;2024-02-21T07:50:33;18.15;;;8.75;;
10687;SDS011;5392;42.688;23.298;2024-02-21T07:52:58;21.85;;;9.88;;
10687;SDS011;5392;42.688;23.298;2024-02-21T07:55:24;15.27;;;8.20;;
10687;SDS011;5392;42.688;23.298;2024-02-21T07:57:49;13.38;;;7.90;;
10687;SDS011;5392;42.688;23.298;2024-02-21T08:00:15;13.48;;;7.28;;
10687;SDS011;5392;42.688;23.298;2024-02-21T08:02:53;14.57;;;7.68;;
10687;SDS011;5392;42.688;23.298;2024-02-21T08:05:19;16.90;;;7.82;;
10687;SDS011;5392;42.688;23.298;2024-02-21T08:07:44;16.60;;;7.68;;
10687;SDS011;5392;42.688;23.298;2024-02-21T08:10:10;17.95;;;7.78;;
10687;SDS011;5392;42.688;23.298;2024-02-21T08:12:35;16.70;;;7.55;;
10687;SDS011;5392;42.688;23.298;2024-02-21T08:15:02;15.75;;;8.27;;
10687;SDS011;5392;42.688;23.298;2024-02-21T08:17:33;16.17;;;8.25;;
10687;SDS011;5392;42.688;23.298;2024-02-21T08:19:58;15.45;;;8.43;;
10687;SDS011;5392;42.688;23.298;2024-02-21T08:22:24;12.35;;;7.57;;
10687;SDS011;5392;42.688;23.298;2024-02-21T08:24:49;15.82;;;8.50;;
10687;SDS011;5392;42.688;23.298;2024-02-21T08:29:40;11.63;;;7.43;;
10687;SDS011;5392;42.688;23.298;2024-02-21T08:34:31;13.30;;;7.43;;
10687;SDS011;5392;42.688;23.298;2024-02-21T08:36:59;13.60;;;7.32;;
10687;SDS011;5392;42.688;23.298;2024-02-21T08:39:25;14.93;;;7.80;;
10687;SDS011;5392;42.688;23.298;2024-02-21T08:44:16;17.43;;;7.67;;
10687;SDS011;5392;42.688;23.298;2024-02-21T08:46:41;14.00;;;8.00;;
10687;SDS011;5392;42.688;23.298;2024-02-21T08:49:07;13.13;;;7.75;;
10687;SDS011;5392;42.688;23.298;2024-02-21T08:51:35;12.98;;;7.40;;
10687;SDS011;5392;42.688;23.298;2024-02-21T08:54:00;13.57;;;7.28;;
10687;SDS011;5392;42.688;23.298;2024-02-21T08:56:27;11.90;;;7.20;;
10687;SDS011;5392;42.688;23.298;2024-02-21T09:01:17;13.90;;;7.30;;
10687;SDS011;5392;42.688;23.298;2024-02-21T09:06:09;14.05;;;7.25;;
10687;SDS011;5392;42.688;23.298;2024-02-21T09:08:35;17.23;;;8.80;;
10687;SDS011;5392;42.688;23.298;2024-02-21T09:11:00;16.05;;;9.50;;
10687;SDS011;5392;42.688;23.298;2024-02-21T09:13:26;15.13;;;8.05;;
10687;SDS011;5392;42.688;23.298;2024-02-21T09:15:52;16.20;;;8.30;;
10687;SDS011;5392;42.688;23.298;2024-02-21T09:18:18;17.92;;;9.23;;
10687;SDS011;5392;42.688;23.298;2024-02-21T09:20:43;10.85;;;6.45;;
10687;SDS011;5392;42.688;23.298;2024-02-21T09:23:09;16.63;;;8.48;;
10687;SDS011;5392;42.688;23.298;2024-02-21T09:25:34;15.25;;;8.70;;
10687;SDS011;5392;42.688;23.298;2024-02-21T09:28:01;12.27;;;7.47;;
10687;SDS011;5392;42.688;23.298;2024-02-21T09:30:27;26.63;;;13.18;;
10687;SDS011;5392;42.688;23.298;2024-02-21T09:32:53;16.90;;;8.15;;
10687;SDS011;5392;42.688;23.298;2024-02-21T09:35:19;16.35;;;7.95;;
10687;SDS011;5392;42.688;23.298;2024-02-21T09:37:47;14.32;;;7.38;;
10687;SDS011;5392;42.688;23.298;2024-02-21T09:40:14;14.30;;;8.32;;
10687;SDS011;5392;42.688;23.298;2024-02-21T09:42:41;13.27;;;7.82;;
10687;SDS011;5392;42.688;23.298;2024-02-21T09:50:16;16.90;;;10.00;;
10687;SDS011;5392;42.688;23.298;2024-02-21T09:52:43;14.80;;;8.15;;
10687;SDS011;5392;42.688;23.298;2024-02-21T09:55:09;12.30;;;7.70;;
10687;SDS011;5392;42.688;23.298;2024-02-21T09:57:37;13.15;;;7.95;;
10687;SDS011;5392;42.688;23.298;2024-02-21T10:00:03;16.63;;;8.85;;
10687;SDS011;5392;42.688;23.298;2024-02-21T10:02:33;24.65;;;14.10;;
10687;SDS011;5392;42.688;23.298;2024-02-21T10:04:59;13.80;;;8.98;;
10687;SDS011;5392;42.688;23.298;2024-02-21T10:10:00;13.77;;;7.88;;
10687;SDS011;5392;42.688;23.298;2024-02-21T10:12:29;12.27;;;7.25;;
10687;SDS011;5392;42.688;23.298;2024-02-21T10:17:26;10.05;;;6.07;;
10687;SDS011;5392;42.688;23.298;2024-02-21T10:19:52;15.18;;;6.93;;
10687;SDS011;5392;42.688;23.298;2024-02-21T10:22:17;13.68;;;6.38;;
10687;SDS011;5392;42.688;23.298;2024-02-21T10:24:43;9.55;;;6.38;;
10687;SDS011;5392;42.688;23.298;2024-02-21T10:27:09;10.57;;;5.63;;
10687;SDS011;5392;42.688;23.298;2024-02-21T10:29:36;9.43;;;6.57;;
10687;SDS011;5392;42.688;23.298;2024-02-21T10:34:31;11.70;;;6.65;;
10687;SDS011;5392;42.688;23.298;2024-02-21T10:37:03;9.80;;;6.07;;
10687;SDS011;5392;42.688;23.298;2024-02-21T10:39:32;8.85;;;5.93;;
10687;SDS011;5392;42.688;23.298;2024-02-21T10:42:00;10.40;;;6.30;;
10687;SDS011;5392;42.688;23.298;2024-02-21T10:44:35;11.02;;;6.65;;
10687;SDS011;5392;42.688;23.298;2024-02-21T10:47:07;8.50;;;5.95;;
10687;SDS011;5392;42.688;23.298;2024-02-21T10:49:36;11.30;;;6.35;;
10687;SDS011;5392;42.688;23.298;2024-02-21T10:54:44;9.73;;;5.85;;
10687;SDS011;5392;42.688;23.298;2024-02-21T10:57:13;9.23;;;5.00;;
10687;SDS011;5392;42.688;23.298;2024-02-21T10:59:41;8.00;;;4.82;;
10687;SDS011;5392;42.688;23.298;2024-02-21T11:02:09;9.63;;;5.47;;
10687;SDS011;5392;42.688;23.298;2024-02-21T11:07:01;5.80;;;3.88;;
10687;SDS011;5392;42.688;23.298;2024-02-21T11:09:31;7.28;;;3.83;;
10687;SDS011;5392;42.688;23.298;2024-02-21T11:12:04;5.30;;;3.47;;
10687;SDS011;5392;42.688;23.298;2024-02-21T11:14:30;5.20;;;3.80;;
10687;SDS011;5392;42.688;23.298;2024-02-21T11:17:14;7.97;;;5.30;;
10687;SDS011;5392;42.688;23.298;2024-02-21T11:19:43;4.88;;;3.30;;
10687;SDS011;5392;42.688;23.298;2024-02-21T11:22:18;5.03;;;3.70;;
10687;SDS011;5392;42.688;23.298;2024-02-21T11:24:47;4.10;;;3.55;;
10687;SDS011;5392;42.688;23.298;2024-02-21T11:27:14;5.70;;;4.13;;
10687;SDS011;5392;42.688;23.298;2024-02-21T11:29:44;7.30;;;4.15;;
10687;SDS011;5392;42.688;23.298;2024-02-21T11:32:20;5.97;;;3.75;;
10687;SDS011;5392;42.688;23.298;2024-02-21T11:37:38;5.05;;;4.00;;
10687;SDS011;5392;42.688;23.298;2024-02-21T11:40:04;6.22;;;3.53;;
10687;SDS011;5392;42.688;23.298;2024-02-21T11:42:35;6.50;;;4.18;;
10687;SDS011;5392;42.688;23.298;2024-02-21T11:45:00;6.75;;;4.57;;
10687;SDS011;5392;42.688;23.298;2024-02-21T11:47:27;7.03;;;4.57;;
10687;SDS011;5392;42.688;23.298;2024-02-21T11:49:53;5.47;;;3.63;;
10687;SDS011;5392;42.688;23.298;2024-02-21T11:54:50;7.97;;;3.95;;
10687;SDS011;5392;42.688;23.298;2024-02-21T11:57:16;6.10;;;4.25;;
10687;SDS011;5392;42.688;23.298;2024-02-21T11:59:43;5.55;;;4.30;;
10687;SDS011;5392;42.688;23.298;2024-02-21T12:02:10;7.18;;;4.65;;
10687;SDS011;5392;42.688;23.298;2024-02-21T12:07:01;6.43;;;3.78;;
10687;SDS011;5392;42.688;23.298;2024-02-21T12:09:28;7.55;;;4.60;;
10687;SDS011;5392;42.688;23.298;2024-02-21T12:14:24;6.20;;;4.18;;
10687;SDS011;5392;42.688;23.298;2024-02-21T12:16:50;7.00;;;4.32;;
10687;SDS011;5392;42.688;23.298;2024-02-21T12:19:16;6.50;;;4.28;;
10687;SDS011;5392;42.688;23.298;2024-02-21T12:21:42;8.45;;;4.80;;
10687;SDS011;5392;42.688;23.298;2024-02-21T12:24:20;8.73;;;4.40;;
10687;SDS011;5392;42.688;23.298;2024-02-21T12:26:48;4.85;;;3.60;;
10687;SDS011;5392;42.688;23.298;2024-02-21T12:29:13;6.53;;;3.65;;
10687;SDS011;5392;42.688;23.298;2024-02-21T12:31:39;8.13;;;4.20;;
10687;SDS011;5392;42.688;23.298;2024-02-21T12:34:05;7.18;;;4.40;;
10687;SDS011;5392;42.688;23.298;2024-02-21T12:36:31;10.50;;;6.10;;
10687;SDS011;5392;42.688;23.298;2024-02-21T12:38:57;6.72;;;3.70;;
10687;SDS011;5392;42.688;23.298;2024-02-21T12:43:50;5.20;;;3.47;;
10687;SDS011;5392;42.688;23.298;2024-02-21T12:46:16;4.38;;;3.83;;
10687;SDS011;5392;42.688;23.298;2024-02-21T12:48:41;9.52;;;4.75;;
10687;SDS011;5392;42.688;23.298;2024-02-21T12:51:07;10.43;;;5.97;;
10687;SDS011;5392;42.688;23.298;2024-02-21T12:53:33;8.93;;;5.63;;
10687;SDS011;5392;42.688;23.298;2024-02-21T12:55:59;11.52;;;5.35;;
10687;SDS011;5392;42.688;23.298;2024-02-21T12:58:24;6.63;;;4.72;;
10687;SDS011;5392;42.688;23.298;2024-02-21T13:00:50;8.63;;;4.95;;
10687;SDS011;5392;42.688;23.298;2024-02-21T13:03:15;7.30;;;4.32;;
10687;SDS011;5392;42.688;23.298;2024-02-21T13:05:41;6.90;;;4.80;;
10687;SDS011;5392;42.688;23.298;2024-02-21T13:08:06;6.55;;;4.95;;
10687;SDS011;5392;42.688;23.298;2024-02-21T13:10:32;6.43;;;4.82;;
10687;SDS011;5392;42.688;23.298;2024-02-21T13:12:59;8.27;;;5.18;;
10687;SDS011;5392;42.688;23.298;2024-02-21T13:15:28;7.43;;;4.90;;
10687;SDS011;5392;42.688;23.298;2024-02-21T13:17:53;8.38;;;5.13;;
10687;SDS011;5392;42.688;23.298;2024-02-21T13:20:27;7.20;;;4.28;;
10687;SDS011;5392;42.688;23.298;2024-02-21T13:22:53;6.97;;;4.50;;
10687;SDS011;5392;42.688;23.298;2024-02-21T13:25:19;8.32;;;5.05;;
10687;SDS011;5392;42.688;23.298;2024-02-21T13:27:46;7.93;;;4.97;;
10687;SDS011;5392;42.688;23.298;2024-02-21T13:30:12;7.47;;;4.38;;
10687;SDS011;5392;42.688;23.298;2024-02-21T13:32:40;8.52;;;4.45;;
10687;SDS011;5392;42.688;23.298;2024-02-21T13:35:11;6.10;;;4.05;;
10687;SDS011;5392;42.688;23.298;2024-02-21T13:37:37;9.80;;;5.05;;
10687;SDS011;5392;42.688;23.298;2024-02-21T13:40:03;8.05;;;4.18;;
10687;SDS011;5392;42.688;23.298;2024-02-21T13:42:29;9.27;;;4.35;;
10687;SDS011;5392;42.688;23.298;2024-02-21T13:44:55;8.10;;;3.92;;
10687;SDS011;5392;42.688;23.298;2024-02-21T13:47:20;6.60;;;4.22;;
10687;SDS011;5392;42.688;23.298;2024-02-21T13:49:46;5.35;;;4.30;;
10687;SDS011;5392;42.688;23.298;2024-02-21T13:54:38;7.35;;;4.22;;
10687;SDS011;5392;42.688;23.298;2024-02-21T13:57:03;8.18;;;4.97;;
10687;SDS011;5392;42.688;23.298;2024-02-21T13:59:29;10.02;;;5.28;;
10687;SDS011;5392;42.688;23.298;2024-02-21T14:01:55;7.97;;;4.40;;
10687;SDS011;5392;42.688;23.298;2024-02-21T14:04:21;8.38;;;4.93;;
10687;SDS011;5392;42.688;23.298;2024-02-21T14:06:46;7.35;;;4.18;;
10687;SDS011;5392;42.688;23.298;2024-02-21T14:09:12;6.68;;;4.38;;
10687;SDS011;5392;42.688;23.298;2024-02-21T14:11:38;5.70;;;3.75;;
10687;SDS011;5392;42.688;23.298;2024-02-21T14:14:05;6.03;;;3.85;;
10687;SDS011;5392;42.688;23.298;2024-02-21T14:16:31;5.78;;;4.25;;
10687;SDS011;5392;42.688;23.298;2024-02-21T14:21:22;4.77;;;3.60;;
10687;SDS011;5392;42.688;23.298;2024-02-21T14:23:47;7.20;;;4.32;;
10687;SDS011;5392;42.688;23.298;2024-02-21T14:26:13;7.70;;;4.70;;
10687;SDS011;5392;42.688;23.298;2024-02-21T14:31:05;10.98;;;5.82;;
10687;SDS011;5392;42.688;23.298;2024-02-21T14:33:34;7.97;;;4.55;;
10687;SDS011;5392;42.688;23.298;2024-02-21T14:36:00;10.20;;;5.63;;
10687;SDS011;5392;42.688;23.298;2024-02-21T14:38:26;8.30;;;5.15;;
10687;SDS011;5392;42.688;23.298;2024-02-21T14:40:52;7.22;;;4.45;;
10687;SDS011;5392;42.688;23.298;2024-02-21T14:43:18;9.10;;;4.85;;
10687;SDS011;5392;42.688;23.298;2024-02-21T14:45:46;8.23;;;4.97;;
10687;SDS011;5392;42.688;23.298;2024-02-21T14:48:12;12.57;;;5.95;;
10687;SDS011;5392;42.688;23.298;2024-02-21T14:50:38;7.85;;;4.55;;
10687;SDS011;5392;42.688;23.298;2024-02-21T14:53:04;7.70;;;5.30;;
10687;SDS011;5392;42.688;23.298;2024-02-21T14:55:29;8.70;;;4.43;;
10687;SDS011;5392;42.688;23.298;2024-02-21T14:57:55;9.55;;;6.28;;
10687;SDS011;5392;42.688;23.298;2024-02-21T15:00:21;14.85;;;8.63;;
10687;SDS011;5392;42.688;23.298;2024-02-21T15:02:53;18.02;;;10.82;;
10687;SDS011;5392;42.688;23.298;2024-02-21T15:07:44;14.70;;;9.07;;
10687;SDS011;5392;42.688;23.298;2024-02-21T15:10:10;16.02;;;9.20;;
10687;SDS011;5392;42.688;23.298;2024-02-21T15:12:36;8.95;;;5.38;;
10687;SDS011;5392;42.688;23.298;2024-02-21T15:15:02;12.07;;;6.72;;
10687;SDS011;5392;42.688;23.298;2024-02-21T15:17:29;9.23;;;6.07;;
10687;SDS011;5392;42.688;23.298;2024-02-21T15:19:54;13.77;;;5.05;;
10687;SDS011;5392;42.688;23.298;2024-02-21T15:22:21;8.35;;;4.88;;
10687;SDS011;5392;42.688;23.298;2024-02-21T15:24:48;10.13;;;5.40;;
10687;SDS011;5392;42.688;23.298;2024-02-21T15:29:40;7.82;;;4.75;;
10687;SDS011;5392;42.688;23.298;2024-02-21T15:32:06;8.90;;;5.50;;
10687;SDS011;5392;42.688;23.298;2024-02-21T15:34:31;13.90;;;5.47;;
10687;SDS011;5392;42.688;23.298;2024-02-21T15:36:57;11.65;;;5.95;;
10687;SDS011;5392;42.688;23.298;2024-02-21T15:39:22;9.57;;;5.10;;